createdAt,value
2023-04-27T00:02:18.460Z,101755.53
2023-04-27T00:04:51.699Z,101746.63
2023-04-27T00:07:24.541Z,101756.25
2023-04-27T00:09:57.498Z,101756.25
2023-04-27T00:12:30.099Z,101754.44
2023-04-27T00:15:02.849Z,101752.56
2023-04-27T00:17:35.784Z,101751.50
2023-04-27T00:20:11.739Z,101764.53
2023-04-27T00:22:44.509Z,101753.03
2023-04-27T00:25:17.079Z,101764.31
2023-04-27T00:27:49.572Z,101758.13
2023-04-27T00:30:22.088Z,101760.69
2023-04-27T00:32:54.951Z,101758.81
2023-04-27T00:35:27.574Z,101765.75
2023-04-27T00:38:00.282Z,101758.66
2023-04-27T00:40:32.993Z,101756.81
2023-04-27T00:43:06.080Z,101761.06
2023-04-27T00:45:44.045Z,101760.19
2023-04-27T00:48:16.753Z,101764.50
2023-04-27T00:50:49.835Z,101761.81
2023-04-27T00:53:22.543Z,101757.34
2023-04-27T00:55:56.377Z,101751.19
2023-04-27T00:58:28.878Z,101758.13
2023-04-27T01:01:01.651Z,101757.16
2023-04-27T01:03:34.567Z,101749.28
2023-04-27T01:06:07.545Z,101762.38
2023-04-27T01:08:40.009Z,101755.28
2023-04-27T01:11:12.631Z,101751.75
2023-04-27T01:13:46.189Z,101756.00
2023-04-27T01:16:19.153Z,101749.75
2023-04-27T01:18:52.114Z,101764.50
2023-04-27T01:21:26.062Z,101754.81
2023-04-27T01:23:58.612Z,101760.78
2023-04-27T01:26:31.521Z,101772.03
2023-04-27T01:29:04.114Z,101772.84
2023-04-27T01:31:36.704Z,101766.69
2023-04-27T01:34:09.617Z,101764.88
2023-04-27T01:36:42.135Z,101763.06
2023-04-27T01:39:15.172Z,101753.44
2023-04-27T01:41:47.810Z,101755.28
2023-04-27T01:44:21.097Z,101754.44
2023-04-27T01:46:53.630Z,101756.97
2023-04-27T01:49:26.266Z,101747.34
2023-04-27T01:51:58.784Z,101752.59
2023-04-27T01:54:31.397Z,101749.03
2023-04-27T01:57:03.863Z,101745.44
2023-04-27T01:59:36.370Z,101748.94
2023-04-27T02:02:08.948Z,101749.03
2023-04-27T02:04:43.190Z,101751.47
2023-04-27T02:07:16.234Z,101746.22
2023-04-27T02:09:48.861Z,101735.69
2023-04-27T02:12:21.430Z,101746.06
2023-04-27T02:14:53.947Z,101747.69
2023-04-27T02:17:26.672Z,101751.09
2023-04-27T02:19:59.222Z,101743.06
2023-04-27T02:22:31.678Z,101738.72
2023-04-27T02:25:04.608Z,101741.22
2023-04-27T02:27:41.490Z,101729.81
2023-04-27T02:30:15.346Z,101724.56
2023-04-27T02:32:48.399Z,101724.63
2023-04-27T02:35:21.153Z,101728.13
2023-04-27T02:37:53.678Z,101724.50
2023-04-27T02:40:26.381Z,101723.66
2023-04-27T02:42:58.941Z,101721.06
2023-04-27T02:45:31.535Z,101720.97
2023-04-27T02:48:04.379Z,101721.69
2023-04-27T02:50:44.856Z,101731.34
2023-04-27T02:53:17.388Z,101729.63
2023-04-27T02:55:51.110Z,101733.09
2023-04-27T02:58:24.087Z,101730.50
2023-04-27T03:00:57.378Z,101727.94
2023-04-27T03:03:30.188Z,101721.88
2023-04-27T03:06:03.848Z,101713.97
2023-04-27T03:08:36.781Z,101724.41
2023-04-27T03:11:09.601Z,101712.25
2023-04-27T03:13:42.242Z,101714.03
2023-04-27T03:16:14.901Z,101721.06
2023-04-27T03:18:47.550Z,101726.34
2023-04-27T03:21:20.294Z,101724.41
2023-04-27T03:23:53.253Z,101720.13
2023-04-27T03:26:26.376Z,101732.41
2023-04-27T03:28:59.006Z,101728.03
2023-04-27T03:31:31.638Z,101726.25
2023-04-27T03:34:04.255Z,101730.63
2023-04-27T03:36:36.747Z,101731.63
2023-04-27T03:39:09.546Z,101737.66
2023-04-27T03:41:42.336Z,101735.03
2023-04-27T03:44:14.938Z,101740.09
2023-04-27T03:46:47.494Z,101733.88
2023-04-27T03:49:20.006Z,101737.28
2023-04-27T03:51:52.463Z,101738.94
2023-04-27T03:54:25.058Z,101739.72
2023-04-27T03:56:57.703Z,101738.66
2023-04-27T03:59:30.390Z,101747.31
2023-04-27T04:02:04.042Z,101743.69
2023-04-27T04:04:36.904Z,101749.75
2023-04-27T04:07:09.529Z,101744.44
2023-04-27T04:09:43.371Z,101746.25
2023-04-27T04:12:15.861Z,101747.09
2023-04-27T04:14:49.121Z,101738.38
2023-04-27T04:17:21.833Z,101743.59
2023-04-27T04:19:54.459Z,101740.94
2023-04-27T04:22:27.257Z,101747.78
2023-04-27T04:24:59.746Z,101756.59
2023-04-27T04:27:33.476Z,101761.78
2023-04-27T04:30:07.503Z,101756.47
2023-04-27T04:32:40.315Z,101753.94
2023-04-27T04:35:13.200Z,101768.75
2023-04-27T04:37:46.715Z,101760.06
2023-04-27T04:40:19.473Z,101763.59
2023-04-27T04:42:52.839Z,101765.44
2023-04-27T04:45:25.937Z,101776.84
2023-04-27T04:48:00.735Z,101778.69
2023-04-27T04:50:33.573Z,101780.47
2023-04-27T04:53:06.463Z,101776.22
2023-04-27T04:55:39.005Z,101767.69
2023-04-27T04:58:11.634Z,101773.16
2023-04-27T05:00:44.153Z,101776.78
2023-04-27T05:03:16.833Z,101784.94
2023-04-27T05:05:49.487Z,101779.88
2023-04-27T05:08:22.045Z,101784.34
2023-04-27T05:10:54.911Z,101783.81
2023-04-27T05:13:27.961Z,101782.28
2023-04-27T05:16:07.832Z,101781.66
2023-04-27T05:18:40.511Z,101777.47
2023-04-27T05:21:17.531Z,101788.00
2023-04-27T05:23:50.118Z,101781.16
2023-04-27T05:26:22.659Z,101791.09
2023-04-27T05:28:55.208Z,101786.13
2023-04-27T05:31:28.028Z,101789.84
2023-04-27T05:34:00.622Z,101789.16
2023-04-27T05:36:33.150Z,101791.94
2023-04-27T05:39:05.987Z,101793.09
2023-04-27T05:41:38.631Z,101795.19
2023-04-27T05:44:11.199Z,101800.34
2023-04-27T05:46:43.720Z,101791.72
2023-04-27T05:49:16.264Z,101794.56
2023-04-27T05:51:48.835Z,101795.94
2023-04-27T05:54:21.427Z,101798.78
2023-04-27T05:56:53.975Z,101799.97
2023-04-27T05:59:27.499Z,101798.34
2023-04-27T06:02:00.032Z,101797.63
2023-04-27T06:04:33.405Z,101799.44
2023-04-27T06:07:13.623Z,101802.06
2023-04-27T06:09:46.178Z,101802.47
2023-04-27T06:12:18.753Z,101795.75
2023-04-27T06:14:51.434Z,101799.34
2023-04-27T06:17:23.939Z,101794.09
2023-04-27T06:19:56.510Z,101793.47
2023-04-27T06:22:29.044Z,101788.34
2023-04-27T06:25:01.592Z,101791.09
2023-04-27T06:27:35.322Z,101788.00
2023-04-27T06:30:08.486Z,101786.34
2023-04-27T06:32:41.021Z,101786.63
2023-04-27T06:35:13.645Z,101785.06
2023-04-27T06:37:47.202Z,101791.50
2023-04-27T06:40:19.854Z,101795.06
2023-04-27T06:42:53.164Z,101782.81
2023-04-27T06:45:25.759Z,101798.66
2023-04-27T06:47:58.425Z,101794.50
2023-04-27T06:50:31.033Z,101789.44
2023-04-27T06:53:04.818Z,101780.66
2023-04-27T06:55:37.330Z,101787.88
2023-04-27T06:58:09.898Z,101792.41
2023-04-27T07:00:42.630Z,101790.88
2023-04-27T07:03:15.675Z,101785.59
2023-04-27T07:05:48.324Z,101780.28
2023-04-27T07:08:20.937Z,101785.81
2023-04-27T07:10:53.646Z,101778.78
2023-04-27T07:13:26.174Z,101774.47
2023-04-27T07:15:58.910Z,101772.66
2023-04-27T07:18:31.530Z,101775.34
2023-04-27T07:21:04.109Z,101772.78
2023-04-27T07:23:36.638Z,101773.72
2023-04-27T07:26:09.963Z,101778.16
2023-04-27T07:28:42.430Z,101781.69
2023-04-27T07:31:14.964Z,101779.06
2023-04-27T07:33:47.680Z,101779.97
2023-04-27T07:36:20.224Z,101786.19
2023-04-27T07:38:53.072Z,101781.78
2023-04-27T07:41:25.629Z,101780.97
2023-04-27T07:43:58.162Z,101777.47
2023-04-27T07:46:31.703Z,101772.16
2023-04-27T07:49:04.282Z,101767.75
2023-04-27T07:51:36.987Z,101773.94
2023-04-27T07:54:09.500Z,101785.38
2023-04-27T07:56:43.096Z,101773.00
2023-04-27T07:59:15.981Z,101775.69
2023-04-27T08:01:49.831Z,101769.44
2023-04-27T08:04:22.890Z,101779.97
2023-04-27T08:06:56.022Z,101770.25
2023-04-27T08:09:29.112Z,101772.03
2023-04-27T08:12:03.062Z,101773.81
2023-04-27T08:14:35.990Z,101775.44
2023-04-27T08:17:08.563Z,101772.91
2023-04-27T08:19:46.724Z,101783.34
2023-04-27T08:22:19.570Z,101784.22
2023-04-27T08:24:52.097Z,101783.34
2023-04-27T08:27:24.704Z,101776.03
2023-04-27T08:29:58.652Z,101764.50
2023-04-27T08:32:31.304Z,101759.22
2023-04-27T08:35:04.455Z,101741.47
2023-04-27T08:37:37.304Z,101746.63
2023-04-27T08:40:11.203Z,101738.41
2023-04-27T08:42:59.607Z,101749.81
2023-04-27T08:45:32.162Z,101732.19
2023-04-27T08:48:05.106Z,101740.47
2023-04-27T08:50:44.110Z,101739.50
2023-04-27T08:53:22.155Z,101736.72
2023-04-27T08:55:56.772Z,101743.50
2023-04-27T08:58:39.452Z,101747.16
2023-04-27T09:01:12.322Z,101748.31
2023-04-27T09:03:46.822Z,101742.06
2023-04-27T09:06:33.168Z,101738.69
2023-04-27T09:09:07.299Z,101738.44
2023-04-27T09:11:39.969Z,101748.09
2023-04-27T09:14:22.303Z,101738.72
2023-04-27T09:16:57.732Z,101746.72
2023-04-27T09:19:31.564Z,101741.03
2023-04-27T09:22:11.064Z,101745.06
2023-04-27T09:24:53.622Z,101734.00
2023-04-27T09:27:26.376Z,101740.91
2023-04-27T09:29:58.896Z,101739.91
2023-04-27T09:32:31.461Z,101737.00
2023-04-27T09:35:21.421Z,101729.47
2023-04-27T09:37:55.614Z,101728.16
2023-04-27T09:40:31.237Z,101736.59
2023-04-27T09:43:03.908Z,101731.91
2023-04-27T09:45:37.287Z,101729.63
2023-04-27T09:48:12.005Z,101725.53
2023-04-27T09:50:46.813Z,101728.19
2023-04-27T09:53:33.685Z,101714.56
2023-04-27T09:56:46.406Z,101718.28
2023-04-27T09:59:58.012Z,101712.94
2023-04-27T10:03:10.508Z,101715.44
2023-04-27T10:06:10.568Z,101707.19
2023-04-27T10:08:43.376Z,101695.19
2023-04-27T10:11:19.347Z,101702.44
2023-04-27T10:13:54.859Z,101702.97
2023-04-27T10:16:27.712Z,101705.91
2023-04-27T10:19:00.460Z,101700.53
2023-04-27T10:21:33.085Z,101713.88
2023-04-27T10:24:09.628Z,101714.16
2023-04-27T10:26:47.676Z,101721.97
2023-04-27T10:29:20.845Z,101719.22
2023-04-27T10:31:53.765Z,101714.41
2023-04-27T10:34:28.368Z,101716.50
2023-04-27T10:37:11.926Z,101711.06
2023-04-27T10:39:49.373Z,101710.03
2023-04-27T10:42:28.884Z,101713.56
2023-04-27T10:45:01.549Z,101699.38
2023-04-27T10:47:45.586Z,101694.91
2023-04-27T10:50:18.625Z,101693.06
2023-04-27T10:52:51.270Z,101688.63
2023-04-27T10:55:24.068Z,101692.59
2023-04-27T10:57:57.831Z,101691.66
2023-04-27T11:00:44.391Z,101690.53
2023-04-27T11:03:22.400Z,101675.72
2023-04-27T11:06:04.699Z,101677.72
2023-04-27T11:08:45.663Z,101673.69
2023-04-27T11:11:18.288Z,101664.44
2023-04-27T11:13:53.073Z,101671.56
2023-04-27T11:16:25.976Z,101661.63
2023-04-27T11:19:06.107Z,101662.34
2023-04-27T11:21:38.976Z,101661.22
2023-04-27T11:24:13.834Z,101671.03
2023-04-27T11:26:53.543Z,101667.91
2023-04-27T11:29:26.163Z,101661.72
2023-04-27T11:31:59.077Z,101660.31
2023-04-27T11:34:36.969Z,101649.38
2023-04-27T11:39:46.258Z,101646.84
2023-04-27T11:42:21.997Z,101654.97
2023-04-27T11:45:01.054Z,101647.84
2023-04-27T11:47:36.062Z,101659.31
2023-04-27T11:50:09.339Z,101647.00
2023-04-27T11:52:42.015Z,101637.22
2023-04-27T11:55:16.246Z,101643.81
2023-04-27T11:57:49.160Z,101650.22
2023-04-27T12:00:21.719Z,101650.34
2023-04-27T12:02:54.488Z,101642.34
2023-04-27T12:05:27.360Z,101633.78
2023-04-27T12:07:59.960Z,101630.97
2023-04-27T12:10:32.567Z,101630.78
2023-04-27T12:13:05.113Z,101645.06
2023-04-27T12:15:38.313Z,101628.44
2023-04-27T12:18:11.241Z,101627.69
2023-04-27T12:20:43.875Z,101624.88
2023-04-27T12:23:16.508Z,101620.69
2023-04-27T12:25:49.226Z,101626.59
2023-04-27T12:28:21.778Z,101618.59
2023-04-27T12:30:55.103Z,101622.59
2023-04-27T12:33:27.758Z,101612.66
2023-04-27T12:36:00.544Z,101609.25
2023-04-27T12:38:33.071Z,101609.41
2023-04-27T12:41:05.770Z,101614.41
2023-04-27T12:43:38.562Z,101617.81
2023-04-27T12:46:11.515Z,101607.91
2023-04-27T12:48:44.934Z,101612.00
2023-04-27T12:51:17.631Z,101605.59
2023-04-27T12:53:50.294Z,101595.06
2023-04-27T12:56:22.848Z,101606.84
2023-04-27T12:58:55.969Z,101606.34
2023-04-27T13:01:28.579Z,101605.66
2023-04-27T13:04:04.063Z,101598.03
2023-04-27T13:06:36.747Z,101597.34
2023-04-27T13:09:09.801Z,101605.78
2023-04-27T13:11:42.576Z,101604.03
2023-04-27T13:14:15.497Z,101590.91
2023-04-27T13:16:48.287Z,101582.47
2023-04-27T13:19:20.767Z,101590.38
2023-04-27T13:21:53.783Z,101587.41
2023-04-27T13:24:29.174Z,101577.84
2023-04-27T13:27:01.856Z,101568.25
2023-04-27T13:29:34.382Z,101561.97
2023-04-27T13:32:06.948Z,101553.13
2023-04-27T13:34:39.571Z,101561.56
2023-04-27T13:37:12.200Z,101548.88
2023-04-27T13:39:44.736Z,101556.09
2023-04-27T13:42:17.385Z,101554.50
2023-04-27T13:44:49.878Z,101553.06
2023-04-27T13:47:22.712Z,101543.56
2023-04-27T13:49:55.237Z,101546.78
2023-04-27T13:52:27.716Z,101536.13
2023-04-27T13:55:00.333Z,101545.19
2023-04-27T13:57:33.624Z,101537.34
2023-04-27T14:00:11.139Z,101532.69
2023-04-27T14:02:43.767Z,101522.88
2023-04-27T14:05:16.409Z,101528.22
2023-04-27T14:07:48.902Z,101528.69
2023-04-27T14:10:22.804Z,101525.56
2023-04-27T14:12:56.571Z,101514.63
2023-04-27T14:15:29.348Z,101513.34
2023-04-27T14:18:01.975Z,101509.31
2023-04-27T14:20:36.623Z,101498.22
2023-04-27T14:23:09.470Z,101507.69
2023-04-27T14:25:42.060Z,101497.78
2023-04-27T14:28:14.914Z,101491.41
2023-04-27T14:30:47.497Z,101491.56
2023-04-27T14:33:20.109Z,101495.97
2023-04-27T14:35:52.703Z,101495.75
2023-04-27T14:38:25.586Z,101490.88
2023-04-27T14:40:58.167Z,101485.06
2023-04-27T14:43:31.736Z,101482.03
2023-04-27T14:46:19.241Z,101471.41
2023-04-27T14:48:53.204Z,101462.44
2023-04-27T14:51:26.543Z,101461.28
2023-04-27T14:53:59.078Z,101452.34
2023-04-27T14:56:31.614Z,101457.53
2023-04-27T14:59:05.714Z,101457.56
2023-04-27T15:01:38.415Z,101457.53
2023-04-27T15:04:12.143Z,101463.38
2023-04-27T15:06:44.727Z,101469.22
2023-04-27T15:09:17.338Z,101471.00
2023-04-27T15:11:49.827Z,101478.72
2023-04-27T15:14:22.375Z,101476.38
2023-04-27T15:16:57.354Z,101472.25
2023-04-27T15:19:29.830Z,101469.44
2023-04-27T15:22:02.355Z,101474.41
2023-04-27T15:24:34.894Z,101467.13
2023-04-27T15:27:10.242Z,101471.44
2023-04-27T15:29:42.848Z,101461.53
2023-04-27T15:32:16.283Z,101466.16
2023-04-27T15:34:50.010Z,101464.47
2023-04-27T15:37:27.921Z,101459.69
2023-04-27T15:40:00.529Z,101467.63
2023-04-27T15:42:34.017Z,101461.34
2023-04-27T15:45:09.712Z,101453.69
2023-04-27T15:47:44.715Z,101456.00
2023-04-27T15:50:18.081Z,101444.59
2023-04-27T15:52:50.956Z,101441.28
2023-04-27T15:55:23.539Z,101439.72
2023-04-27T15:57:56.070Z,101450.69
2023-04-27T16:00:28.602Z,101446.53
2023-04-27T16:03:01.681Z,101430.34
2023-04-27T16:05:34.706Z,101437.38
2023-04-27T16:08:07.205Z,101415.16
2023-04-27T16:10:39.713Z,101416.44
2023-04-27T16:13:12.251Z,101412.69
2023-04-27T16:15:44.768Z,101411.59
2023-04-27T16:18:18.494Z,101404.81
2023-04-27T16:20:53.465Z,101407.53
2023-04-27T16:23:26.079Z,101400.16
2023-04-27T16:25:58.576Z,101394.91
2023-04-27T16:28:32.731Z,101399.16
2023-04-27T16:31:05.592Z,101387.53
2023-04-27T16:33:38.132Z,101385.16
2023-04-27T16:36:11.248Z,101380.34
2023-04-27T16:38:43.878Z,101379.44
2023-04-27T16:41:16.511Z,101378.50
2023-04-27T16:43:50.811Z,101376.72
2023-04-27T16:46:27.133Z,101379.69
2023-04-27T16:48:59.675Z,101377.78
2023-04-27T16:51:33.213Z,101368.75
2023-04-27T16:54:08.171Z,101365.59
2023-04-27T16:56:40.752Z,101364.97
2023-04-27T16:59:13.621Z,101354.44
2023-04-27T17:01:46.356Z,101355.81
2023-04-27T17:04:19.024Z,101357.19
2023-04-27T17:06:52.159Z,101354.41
2023-04-27T17:09:25.523Z,101345.34
2023-04-27T17:11:57.997Z,101350.75
2023-04-27T17:14:30.816Z,101356.59
2023-04-27T17:17:03.482Z,101350.28
2023-04-27T17:19:36.068Z,101355.03
2023-04-27T17:22:11.289Z,101350.41
2023-04-27T17:24:46.998Z,101348.03
2023-04-27T17:27:19.400Z,101360.41
2023-04-27T17:29:53.756Z,101360.19
2023-04-27T17:32:26.473Z,101352.34
2023-04-27T17:34:59.125Z,101345.06
2023-04-27T17:37:31.639Z,101333.19
2023-04-27T17:40:09.091Z,101334.19
2023-04-27T17:42:41.831Z,101323.69
2023-04-27T17:45:14.912Z,101328.09
2023-04-27T17:47:47.533Z,101331.63
2023-04-27T17:50:20.470Z,101328.28
2023-04-27T17:52:53.981Z,101322.97
2023-04-27T17:55:26.693Z,101321.41
2023-04-27T17:57:59.317Z,101322.31
2023-04-27T18:00:32.414Z,101317.91
2023-04-27T18:03:05.136Z,101313.25
2023-04-27T18:05:38.086Z,101310.81
2023-04-27T18:08:11.085Z,101318.47
2023-04-27T18:10:43.735Z,101307.78
2023-04-27T18:13:16.267Z,101317.06
2023-04-27T18:15:48.761Z,101316.97
2023-04-27T18:18:23.217Z,101324.97
2023-04-27T18:20:57.759Z,101315.22
2023-04-27T18:23:30.706Z,101319.72
2023-04-27T18:26:03.947Z,101315.19
2023-04-27T18:28:37.979Z,101313.22
2023-04-27T18:31:18.167Z,101322.03
2023-04-27T18:33:53.646Z,101326.53
2023-04-27T18:36:27.579Z,101319.03
2023-04-27T18:39:00.190Z,101321.44
2023-04-27T18:41:32.787Z,101321.94
2023-04-27T18:44:06.071Z,101320.28
2023-04-27T18:46:38.875Z,101323.84
2023-04-27T18:49:12.590Z,101323.84
2023-04-27T18:51:45.471Z,101330.13
2023-04-27T18:54:17.994Z,101333.50
2023-04-27T18:56:53.068Z,101333.63
2023-04-27T18:59:25.732Z,101330.13
2023-04-27T19:01:58.261Z,101334.81
2023-04-27T19:04:31.371Z,101337.53
2023-04-27T19:07:03.960Z,101331.38
2023-04-27T19:09:36.554Z,101324.38
2023-04-27T19:12:19.198Z,101316.53
2023-04-27T19:14:52.105Z,101315.22
2023-04-27T19:17:29.299Z,101311.38
2023-04-27T19:20:02.021Z,101306.44
2023-04-27T19:22:36.946Z,101300.81
2023-04-27T19:25:10.256Z,101311.66
2023-04-27T19:27:43.106Z,101312.06
2023-04-27T19:30:16.659Z,101305.19
2023-04-27T19:32:57.522Z,101316.53
2023-04-27T19:35:30.609Z,101317.47
2023-04-27T19:38:08.256Z,101312.31
2023-04-27T19:40:40.839Z,101310.56
2023-04-27T19:43:14.259Z,101317.06
2023-04-27T19:45:49.789Z,101313.25
2023-04-27T19:48:28.144Z,101304.06
2023-04-27T19:51:01.439Z,101307.19
2023-04-27T19:53:34.284Z,101307.19
2023-04-27T19:56:12.653Z,101296.69
2023-04-27T19:58:46.555Z,101297.47
2023-04-27T20:01:21.861Z,101296.78
2023-04-27T20:03:55.051Z,101289.56
2023-04-27T20:06:27.792Z,101297.06
2023-04-27T20:09:06.948Z,101294.31
2023-04-27T20:11:43.218Z,101294.19
2023-04-27T20:14:16.734Z,101296.38
2023-04-27T20:16:49.882Z,101292.66
2023-04-27T20:19:25.034Z,101294.28
2023-04-27T20:21:57.643Z,101290.97
2023-04-27T20:24:30.200Z,101293.34
2023-04-27T20:27:06.218Z,101298.66
2023-04-27T20:29:39.000Z,101281.16
2023-04-27T20:32:11.532Z,101285.66
2023-04-27T20:34:44.033Z,101283.16
2023-04-27T20:37:17.278Z,101275.34
2023-04-27T20:39:49.797Z,101265.59
2023-04-27T20:42:22.476Z,101266.19
2023-04-27T20:44:55.147Z,101262.94
2023-04-27T20:47:27.677Z,101255.81
2023-04-27T20:50:00.274Z,101247.34
2023-04-27T20:52:34.527Z,101231.22
2023-04-27T20:55:07.512Z,101230.53
2023-04-27T20:57:40.060Z,101225.78
2023-04-27T21:00:15.270Z,101221.34
2023-04-27T21:02:48.200Z,101210.16
2023-04-27T21:05:20.926Z,101214.59
2023-04-27T21:07:54.005Z,101209.47
2023-04-27T21:10:26.785Z,101209.19
2023-04-27T21:13:01.375Z,101203.16
2023-04-27T21:15:33.962Z,101201.56
2023-04-27T21:18:09.413Z,101187.56
2023-04-27T21:20:46.105Z,101184.81
2023-04-27T21:23:19.969Z,101178.47
2023-04-27T21:25:52.578Z,101182.34
2023-04-27T21:28:25.151Z,101172.53
2023-04-27T21:30:57.717Z,101168.88
2023-04-27T21:33:31.979Z,101161.81
2023-04-27T21:36:05.109Z,101161.06
2023-04-27T21:38:37.599Z,101155.75
2023-04-27T21:41:11.535Z,101160.34
2023-04-27T21:43:44.969Z,101159.56
2023-04-27T21:46:17.644Z,101159.44
2023-04-27T21:48:50.277Z,101157.72
2023-04-27T21:51:22.786Z,101151.38
2023-04-27T21:53:55.731Z,101148.16
2023-04-27T21:56:28.784Z,101141.25
2023-04-27T21:59:01.494Z,101138.75
2023-04-27T22:01:34.166Z,101142.06
2023-04-27T22:04:06.907Z,101131.44
2023-04-27T22:06:39.788Z,101138.66
2023-04-27T22:09:12.442Z,101128.94
2023-04-27T22:11:45.047Z,101123.56
2023-04-27T22:14:17.658Z,101122.25
2023-04-27T22:16:50.532Z,101123.75
2023-04-27T22:19:25.056Z,101137.22
2023-04-27T22:21:57.574Z,101128.41
2023-04-27T22:24:30.209Z,101124.88
2023-04-27T22:27:03.882Z,101123.06
2023-04-27T22:29:36.426Z,101109.06
2023-04-27T22:32:09.772Z,101107.53
2023-04-27T22:34:42.719Z,101107.63
2023-04-27T22:37:15.336Z,101107.63
2023-04-27T22:39:47.955Z,101102.13
2023-04-27T22:42:20.531Z,101104.78
2023-04-27T22:44:53.012Z,101100.38
2023-04-27T22:47:25.512Z,101086.38
2023-04-27T22:49:58.120Z,101077.78
2023-04-27T22:52:33.701Z,101070.66
2023-04-27T22:55:07.161Z,101073.34
2023-04-27T22:57:41.691Z,101070.50
2023-04-27T23:00:15.142Z,101076.69
2023-04-27T23:02:47.926Z,101081.81
2023-04-27T23:05:20.596Z,101086.38
2023-04-27T23:07:53.122Z,101093.44
2023-04-27T23:10:26.737Z,101082.88
2023-04-27T23:13:01.834Z,101075.84
2023-04-27T23:15:34.564Z,101082.28
2023-04-27T23:18:07.202Z,101083.19
2023-04-27T23:20:39.939Z,101076.03
2023-04-27T23:23:12.490Z,101071.13
2023-04-27T23:25:45.056Z,101066.66
2023-04-27T23:28:17.651Z,101059.28
2023-04-27T23:30:55.246Z,101052.53
2023-04-27T23:33:28.440Z,101054.56
2023-04-27T23:36:01.984Z,101051.69
2023-04-27T23:38:34.517Z,101053.63
2023-04-27T23:41:07.086Z,101053.63
2023-04-27T23:43:39.629Z,101052.06
2023-04-27T23:46:12.645Z,101044.19
2023-04-27T23:48:46.112Z,101039.00
2023-04-27T23:51:18.712Z,101034.50
2023-04-27T23:53:51.475Z,101019.66
2023-04-27T23:56:24.305Z,101026.78
2023-04-27T23:58:56.842Z,101027.56
